Time;durP1;ratioP1;P1;durP2;ratioP2;P2;SDS_P1;SDS_P2;PMS_P1;PMS_P2;Temp;Humidity;BMP_temperature;BMP_pressure;BME280_temperature;BME280_humidity;BME280_pressure;Samples;Min_cycle;Max_cycle;Signal;HPM_P1;HPM_P2
2023/03/31 00:01:07;;;;;;;4.05;0.95;;;11.20;86.70;;;;;;5015832;28;20061;-67
2023/03/31 00:03:42;;;;;;;4.00;1.00;;;11.20;86.70;;;;;;5006239;28;20099;-68
2023/03/31 00:06:18;;;;;;;3.28;0.80;;;11.20;86.90;;;;;;4994614;28;20054;-66
2023/03/31 00:08:46;;;;;;;2.83;0.80;;;11.20;86.80;;;;;;5013426;28;20137;-68
2023/03/31 00:11:20;;;;;;;2.90;0.65;;;11.20;86.80;;;;;;5015224;28;20042;-68
2023/03/31 00:13:54;;;;;;;4.45;1.13;;;11.20;86.50;;;;;;5016380;28;20050;-66
2023/03/31 00:16:29;;;;;;;4.43;0.90;;;11.20;86.80;;;;;;5008154;28;20045;-67
2023/03/31 00:19:04;;;;;;;4.00;0.75;;;11.20;86.90;;;;;;5006093;28;20045;-67
2023/03/31 00:21:37;;;;;;;4.43;0.88;;;11.20;87.00;;;;;;5015716;28;20134;-67
2023/03/31 00:24:12;;;;;;;3.90;0.77;;;11.20;87.00;;;;;;5016210;28;20127;-68
2023/03/31 00:26:45;;;;;;;6.00;1.02;;;11.10;87.00;;;;;;5014539;28;20767;-66
2023/03/31 00:29:18;;;;;;;4.63;0.70;;;11.10;87.10;;;;;;5012620;28;20045;-67
2023/03/31 00:31:46;;;;;;;4.03;0.80;;;11.20;87.10;;;;;;5015389;28;20034;-67
2023/03/31 00:34:20;;;;;;;3.83;0.90;;;11.10;87.20;;;;;;5015245;28;20043;-66
2023/03/31 00:36:55;;;;;;;4.30;0.88;;;11.10;87.30;;;;;;5011344;28;20049;-67
2023/03/31 00:39:32;;;;;;;4.32;1.08;;;11.10;87.50;;;;;;4993545;28;20063;-66
2023/03/31 00:42:11;;;;;;;3.53;1.00;;;11.10;87.50;;;;;;4993909;28;20088;-67
2023/03/31 00:45:21;;;;;;;4.05;0.60;;;11.10;88.00;;;;;;5007953;28;20045;-65
2023/03/31 00:48:03;;;;;;;4.53;0.70;;;11.10;87.80;;;;;;5009738;28;20052;-67
2023/03/31 00:50:44;;;;;;;3.42;0.90;;;11.10;88.20;;;;;;5014527;28;20048;-67
2023/03/31 00:53:24;;;;;;;3.95;0.85;;;11.10;88.30;;;;;;5012577;28;20473;-68
2023/03/31 00:56:01;;;;;;;4.05;0.90;;;11.10;88.30;;;;;;5009914;28;20042;-67
2023/03/31 00:58:44;;;;;;;2.63;0.85;;;11.10;88.40;;;;;;4999052;28;20115;-68
2023/03/31 01:01:23;;;;;;;5.80;1.00;;;11.00;88.50;;;;;;5012235;28;20041;-67
2023/03/31 01:03:58;;;;;;;4.20;0.90;;;11.00;88.50;;;;;;5011532;28;20737;-66
2023/03/31 01:06:32;;;;;;;2.97;0.77;;;11.00;88.60;;;;;;5011559;28;20037;-68
2023/03/31 01:09:07;;;;;;;5.72;1.10;;;11.00;88.70;;;;;;5016159;28;20107;-66
2023/03/31 01:11:40;;;;;;;4.55;0.70;;;11.00;88.80;;;;;;5012447;28;20046;-66
2023/03/31 01:14:14;;;;;;;4.63;1.00;;;11.00;88.90;;;;;;5015123;28;20073;-67
2023/03/31 01:16:48;;;;;;;4.47;1.20;;;11.00;88.90;;;;;;5015051;28;20542;-67
2023/03/31 01:19:33;;;;;;;2.72;0.95;;;11.00;88.90;;;;;;5015423;28;20045;-69
2023/03/31 01:22:27;;;;;;;3.10;0.90;;;10.90;88.90;;;;;;5014072;28;20042;-66
2023/03/31 01:25:31;;;;;;;4.15;1.25;;;10.90;89.00;;;;;;5014904;28;20068;-68
2023/03/31 01:28:19;;;;;;;5.38;0.82;;;10.90;89.10;;;;;;5013889;28;20045;-69
2023/03/31 01:31:21;;;;;;;3.65;0.98;;;10.90;89.20;;;;;;4990700;28;20124;-66
2023/03/31 01:34:12;;;;;;;3.65;0.93;;;10.90;89.00;;;;;;5012959;28;20056;-67
2023/03/31 01:37:22;;;;;;;4.43;1.27;;;10.90;89.20;;;;;;5011947;28;20080;-67
2023/03/31 01:40:16;;;;;;;4.03;0.98;;;10.90;89.20;;;;;;5010492;28;20511;-67
2023/03/31 01:42:56;;;;;;;5.22;1.23;;;10.90;89.30;;;;;;5009423;28;20048;-67
2023/03/31 01:45:44;;;;;;;3.72;0.90;;;10.80;89.40;;;;;;5011968;28;20052;-67
2023/03/31 01:48:22;;;;;;;4.13;0.95;;;10.90;89.30;;;;;;5004166;28;20057;-67
2023/03/31 01:50:57;;;;;;;4.32;0.63;;;10.90;89.30;;;;;;5014257;28;20054;-65
2023/03/31 01:53:36;;;;;;;3.80;0.90;;;10.80;89.30;;;;;;5007634;28;20038;-68
2023/03/31 01:56:17;;;;;;;4.25;0.90;;;10.80;89.30;;;;;;5013359;28;20049;-67
2023/03/31 01:59:01;;;;;;;3.60;0.60;;;10.80;89.40;;;;;;5000670;28;20696;-67
2023/03/31 02:01:40;;;;;;;4.43;0.85;;;10.80;89.40;;;;;;5006291;28;20426;-66
2023/03/31 02:04:19;;;;;;;3.30;0.60;;;10.80;89.40;;;;;;5012102;28;20104;-67
2023/03/31 02:06:57;;;;;;;3.22;0.70;;;10.80;89.50;;;;;;5015692;28;20068;-68
2023/03/31 02:09:34;;;;;;;3.67;0.77;;;10.80;89.60;;;;;;5015609;28;20096;-68
2023/03/31 02:12:28;;;;;;;3.10;0.60;;;10.80;89.60;;;;;;4997090;28;20037;-68
2023/03/31 02:15:11;;;;;;;2.63;0.60;;;10.80;89.50;;;;;;4992038;28;20054;-67
2023/03/31 02:17:48;;;;;;;3.88;0.90;;;10.80;89.50;;;;;;5015266;28;20542;-68
2023/03/31 02:20:22;;;;;;;3.83;0.73;;;10.70;89.50;;;;;;5013755;28;20049;-67
2023/03/31 02:22:57;;;;;;;4.00;0.90;;;10.80;89.50;;;;;;5016382;28;20053;-68
2023/03/31 02:25:35;;;;;;;2.83;0.68;;;10.70;89.50;;;;;;5004732;28;20103;-67
2023/03/31 02:28:12;;;;;;;2.70;0.70;;;10.70;89.50;;;;;;5004979;28;20597;-68
2023/03/31 02:30:53;;;;;;;4.68;0.95;;;10.70;89.50;;;;;;5012456;28;20126;-67
2023/03/31 02:33:27;;;;;;;4.63;0.80;;;10.70;89.50;;;;;;4991359;28;20069;-67
2023/03/31 02:36:01;;;;;;;4.68;0.80;;;10.70;89.60;;;;;;5011168;28;20045;-67
2023/03/31 02:38:39;;;;;;;2.67;0.77;;;10.70;89.50;;;;;;5010125;28;20298;-67
2023/03/31 02:41:13;;;;;;;4.30;1.00;;;10.70;89.50;;;;;;5001408;28;20037;-66
2023/03/31 02:43:47;;;;;;;4.57;1.10;;;10.70;89.50;;;;;;4999343;28;20049;-66
2023/03/31 02:46:24;;;;;;;2.42;0.68;;;10.70;89.60;;;;;;5000865;28;20060;-68
2023/03/31 02:49:03;;;;;;;3.63;0.63;;;10.70;89.60;;;;;;5021528;28;20053;-68
2023/03/31 02:52:16;;;;;;;4.38;0.93;;;10.70;89.50;;;;;;5020859;28;20499;-69
2023/03/31 02:55:29;;;;;;;2.67;0.63;;;10.70;89.60;;;;;;5002043;28;20048;-69
2023/03/31 02:58:34;;;;;;;3.90;0.70;;;10.70;89.70;;;;;;5016226;28;20054;-68
2023/03/31 03:01:25;;;;;;;4.78;1.10;;;10.70;89.60;;;;;;5021650;28;20692;-67
2023/03/31 03:04:09;;;;;;;3.92;1.02;;;10.60;89.50;;;;;;5021751;28;20044;-67
2023/03/31 03:06:56;;;;;;;4.63;0.80;;;10.60;89.50;;;;;;5021467;28;20045;-69
2023/03/31 03:09:39;;;;;;;3.55;0.90;;;10.60;89.50;;;;;;5040901;28;20045;-68
2023/03/31 03:12:19;;;;;;;4.18;0.80;;;10.60;89.40;;;;;;5022183;28;20037;-68
2023/03/31 03:15:00;;;;;;;4.65;0.85;;;10.60;89.30;;;;;;5039485;28;20052;-68
2023/03/31 03:17:39;;;;;;;3.58;0.80;;;10.60;89.20;;;;;;5041987;28;20068;-68
2023/03/31 03:20:15;;;;;;;3.38;0.70;;;10.50;89.20;;;;;;5041557;28;20057;-69
2023/03/31 03:22:48;;;;;;;3.03;0.80;;;10.50;89.30;;;;;;5042274;28;20041;-67
2023/03/31 03:25:17;;;;;;;4.55;0.88;;;10.50;89.30;;;;;;5039051;28;20110;-67
2023/03/31 03:27:51;;;;;;;7.47;0.95;;;10.50;89.30;;;;;;5039039;28;20587;-68
2023/03/31 03:30:26;;;;;;;6.15;1.48;;;10.40;89.40;;;;;;5040758;28;20150;-68
2023/03/31 03:33:00;;;;;;;6.53;0.98;;;10.40;89.50;;;;;;5041689;28;20045;-69
2023/03/31 03:35:34;;;;;;;3.42;1.10;;;10.40;89.60;;;;;;5037910;28;20123;-68
2023/03/31 03:38:08;;;;;;;5.05;1.30;;;10.40;89.50;;;;;;5038893;28;20053;-69
2023/03/31 03:40:41;;;;;;;5.35;1.67;;;10.50;89.60;;;;;;5021440;28;20045;-68
2023/03/31 03:43:08;;;;;;;5.00;1.52;;;10.40;89.60;;;;;;5040539;28;20049;-68
2023/03/31 03:45:41;;;;;;;3.35;1.30;;;10.50;89.70;;;;;;5040281;28;20122;-68
2023/03/31 03:48:16;;;;;;;6.78;1.73;;;10.50;89.70;;;;;;5040059;28;20052;-68
2023/03/31 03:50:50;;;;;;;6.78;1.60;;;10.50;89.70;;;;;;5036833;28;20444;-68
2023/03/31 03:53:23;;;;;;;5.47;1.58;;;10.50;89.70;;;;;;5035830;28;20095;-68
2023/03/31 03:55:58;;;;;;;4.82;1.90;;;10.40;89.80;;;;;;5031941;28;20065;-69
2023/03/31 03:58:31;;;;;;;7.90;2.30;;;10.40;89.80;;;;;;5015894;28;20041;-69
2023/03/31 04:01:04;;;;;;;8.10;2.35;;;10.40;89.90;;;;;;5015165;28;20046;-67
2023/03/31 04:03:40;;;;;;;5.38;2.10;;;10.40;89.90;;;;;;5016601;28;20396;-69
2023/03/31 04:06:13;;;;;;;6.68;2.10;;;10.40;90.00;;;;;;5018791;28;20077;-67
2023/03/31 04:08:46;;;;;;;5.90;2.30;;;10.40;89.90;;;;;;5014585;28;20058;-68
2023/03/31 04:11:20;;;;;;;4.57;1.90;;;10.40;89.90;;;;;;5017890;28;20057;-68
2023/03/31 04:13:53;;;;;;;5.05;1.90;;;10.40;89.90;;;;;;5017376;28;20053;-68
2023/03/31 04:16:26;;;;;;;5.35;1.77;;;10.40;89.90;;;;;;5016937;28;20051;-68
2023/03/31 04:19:02;;;;;;;6.03;1.70;;;10.40;89.80;;;;;;5017433;28;20045;-68
2023/03/31 04:21:35;;;;;;;4.70;1.70;;;10.40;89.80;;;;;;5013946;28;20109;-68
2023/03/31 04:24:11;;;;;;;5.10;1.73;;;10.40;89.80;;;;;;5018857;28;20120;-68
2023/03/31 04:26:44;;;;;;;6.78;1.70;;;10.40;89.90;;;;;;5030934;28;20053;-68
2023/03/31 04:29:19;;;;;;;5.97;1.80;;;10.40;89.90;;;;;;5030313;28;20114;-68
2023/03/31 04:31:57;;;;;;;6.13;2.05;;;10.40;89.90;;;;;;5019495;28;20137;-68
2023/03/31 04:34:34;;;;;;;5.30;1.65;;;10.40;90.00;;;;;;5017060;28;20042;-68
2023/03/31 04:37:09;;;;;;;5.28;1.75;;;10.40;89.90;;;;;;5017094;28;20488;-68
2023/03/31 04:39:36;;;;;;;9.32;2.40;;;10.40;89.90;;;;;;5016453;28;20058;-68
2023/03/31 04:42:09;;;;;;;8.32;1.80;;;10.30;89.90;;;;;;5018007;28;20070;-68
2023/03/31 04:44:42;;;;;;;6.68;1.45;;;10.40;89.90;;;;;;5019246;28;20069;-67
2023/03/31 04:47:15;;;;;;;5.40;1.50;;;10.40;89.80;;;;;;5016755;28;20053;-68
2023/03/31 04:49:50;;;;;;;5.82;1.77;;;10.40;89.70;;;;;;5017322;28;20112;-68
2023/03/31 04:52:23;;;;;;;4.05;1.25;;;10.30;89.80;;;;;;5015266;28;20136;-69
2023/03/31 04:54:57;;;;;;;4.88;1.25;;;10.30;89.80;;;;;;5017619;28;20053;-69
2023/03/31 04:57:37;;;;;;;5.03;1.33;;;10.30;89.90;;;;;;5018337;28;20054;-69
2023/03/31 05:00:18;;;;;;;4.03;1.35;;;10.30;89.90;;;;;;5016617;28;20042;-67
2023/03/31 05:02:52;;;;;;;6.97;1.15;;;10.30;89.90;;;;;;5017124;28;20041;-69
2023/03/31 05:05:27;;;;;;;5.43;1.33;;;10.20;90.00;;;;;;5016363;28;20050;-69
2023/03/31 05:08:00;;;;;;;4.70;1.40;;;10.30;90.00;;;;;;5016707;28;20041;-69
2023/03/31 05:10:33;;;;;;;5.88;1.40;;;10.30;90.00;;;;;;5015716;28;20049;-68
2023/03/31 05:13:06;;;;;;;3.58;1.33;;;10.30;90.00;;;;;;5017062;28;20497;-68
2023/03/31 05:15:39;;;;;;;8.50;1.60;;;10.30;90.00;;;;;;5015059;28;20042;-68
2023/03/31 05:18:13;;;;;;;6.88;1.52;;;10.20;90.00;;;;;;5017006;28;20038;-68
2023/03/31 05:20:48;;;;;;;4.50;1.70;;;10.30;90.10;;;;;;5017040;28;20168;-68
2023/03/31 05:23:21;;;;;;;6.28;1.80;;;10.30;90.10;;;;;;5015973;28;20120;-68
2023/03/31 05:25:54;;;;;;;7.28;1.92;;;10.30;90.00;;;;;;5016014;28;20084;-69
2023/03/31 05:28:27;;;;;;;5.57;1.90;;;10.30;90.00;;;;;;5016027;28;20046;-68
2023/03/31 05:31:01;;;;;;;7.22;1.92;;;10.30;90.00;;;;;;5018108;28;20060;-67
2023/03/31 05:33:38;;;;;;;5.50;1.52;;;10.30;90.10;;;;;;5015653;28;20056;-68
2023/03/31 05:36:16;;;;;;;5.28;1.70;;;10.30;90.10;;;;;;5014933;28;20112;-69
2023/03/31 05:38:51;;;;;;;7.28;1.70;;;10.20;90.20;;;;;;5018937;28;20034;-69
2023/03/31 05:41:25;;;;;;;6.80;1.60;;;10.20;90.20;;;;;;5016515;28;20038;-68
2023/03/31 05:43:58;;;;;;;5.63;1.80;;;10.30;90.10;;;;;;5016475;28;20045;-68
2023/03/31 05:46:32;;;;;;;5.28;1.75;;;10.30;90.20;;;;;;5014822;28;20049;-68
2023/03/31 05:49:06;;;;;;;6.82;1.83;;;10.20;90.20;;;;;;5017963;28;20141;-68
2023/03/31 05:51:41;;;;;;;7.70;1.92;;;10.20;90.20;;;;;;5012705;28;20053;-68
2023/03/31 05:54:15;;;;;;;6.72;1.58;;;10.30;90.20;;;;;;5013333;28;20085;-68
2023/03/31 05:56:48;;;;;;;6.28;1.83;;;10.30;90.30;;;;;;5015664;28;20069;-68
2023/03/31 05:59:21;;;;;;;5.88;1.65;;;10.20;90.20;;;;;;5016294;28;20042;-67
2023/03/31 06:01:54;;;;;;;5.55;1.63;;;10.30;90.30;;;;;;5014735;28;20053;-68
2023/03/31 06:04:27;;;;;;;5.93;1.77;;;10.30;90.30;;;;;;5015248;28;20104;-68
2023/03/31 06:07:04;;;;;;;5.10;1.92;;;10.20;90.30;;;;;;5015110;28;20050;-67
2023/03/31 06:09:37;;;;;;;6.57;2.20;;;10.30;90.30;;;;;;4995611;28;20476;-68
2023/03/31 06:12:10;;;;;;;4.75;1.77;;;10.20;90.40;;;;;;5017078;28;20051;-69
2023/03/31 06:14:43;;;;;;;6.28;1.92;;;10.20;90.40;;;;;;5014653;28;20045;-68
2023/03/31 06:17:16;;;;;;;6.68;1.95;;;10.30;90.40;;;;;;5015375;28;20049;-70
2023/03/31 06:19:49;;;;;;;6.47;1.70;;;10.30;90.40;;;;;;5011139;28;20041;-69
2023/03/31 06:22:31;;;;;;;7.38;2.10;;;10.30;90.40;;;;;;5015981;28;20049;-67
2023/03/31 06:25:05;;;;;;;5.82;1.98;;;10.30;90.50;;;;;;5016374;28;20053;-68
2023/03/31 06:27:38;;;;;;;5.32;2.03;;;10.30;90.50;;;;;;5013071;28;20080;-68
2023/03/31 06:30:12;;;;;;;6.10;2.08;;;10.30;90.40;;;;;;5016224;28;20049;-67
2023/03/31 06:32:45;;;;;;;4.82;1.58;;;10.30;90.50;;;;;;5016260;28;20088;-68
2023/03/31 06:35:18;;;;;;;5.70;1.60;;;10.40;90.20;;;;;;5015212;28;20129;-68
2023/03/31 06:37:53;;;;;;;7.60;2.15;;;10.40;90.40;;;;;;5012650;28;20488;-68
2023/03/31 06:40:26;;;;;;;9.55;1.95;;;10.40;90.40;;;;;;5015260;28;20535;-67
2023/03/31 06:43:00;;;;;;;10.60;2.00;;;10.40;90.40;;;;;;5016299;28;20042;-68
2023/03/31 06:45:28;;;;;;;6.22;2.10;;;10.30;90.50;;;;;;4996161;28;20063;-68
2023/03/31 06:48:01;;;;;;;4.63;1.63;;;10.40;90.50;;;;;;5013744;28;20508;-68
2023/03/31 06:50:37;;;;;;;6.22;1.83;;;10.40;90.50;;;;;;5012319;28;20049;-68
2023/03/31 06:53:12;;;;;;;6.22;1.83;;;10.40;90.60;;;;;;5014451;28;20048;-69
2023/03/31 06:55:45;;;;;;;6.60;1.98;;;10.40;90.50;;;;;;5013792;28;20907;-68
2023/03/31 06:58:25;;;;;;;4.70;1.77;;;10.40;90.60;;;;;;4998307;28;20060;-68
2023/03/31 07:00:58;;;;;;;6.97;1.83;;;10.40;90.50;;;;;;4999960;28;20053;-68
2023/03/31 07:03:32;;;;;;;5.82;1.58;;;10.40;90.40;;;;;;4982272;28;20108;-69
2023/03/31 07:06:06;;;;;;;6.68;1.63;;;10.40;90.60;;;;;;5005344;28;20038;-69
2023/03/31 07:08:41;;;;;;;3.85;1.50;;;10.40;90.40;;;;;;5011126;28;20054;-69
2023/03/31 07:11:15;;;;;;;5.32;1.50;;;10.40;90.60;;;;;;5003915;28;20058;-68
2023/03/31 07:13:48;;;;;;;6.03;1.67;;;10.40;90.60;;;;;;4999165;28;20061;-68
2023/03/31 07:16:22;;;;;;;6.28;1.70;;;10.40;90.50;;;;;;4999362;28;20120;-69
2023/03/31 07:18:58;;;;;;;7.63;1.63;;;10.40;90.50;;;;;;4997830;28;20049;-68
2023/03/31 07:21:25;;;;;;;6.78;2.03;;;10.40;90.50;;;;;;4996957;28;20070;-68
2023/03/31 07:24:00;;;;;;;6.22;2.03;;;10.40;90.60;;;;;;4999078;28;20050;-69
2023/03/31 07:26:33;;;;;;;5.40;2.05;;;10.40;90.60;;;;;;4999339;28;20408;-68
2023/03/31 07:29:06;;;;;;;5.90;2.08;;;10.40;90.30;;;;;;4991484;28;20073;-69
2023/03/31 07:31:40;;;;;;;6.07;2.05;;;10.50;90.60;;;;;;5002558;28;20444;-69
2023/03/31 07:34:14;;;;;;;4.68;2.13;;;10.40;90.50;;;;;;5002829;28;20478;-68
2023/03/31 07:36:47;;;;;;;4.75;1.83;;;10.40;90.40;;;;;;5002383;28;20072;-68
2023/03/31 07:39:22;;;;;;;6.90;1.90;;;10.50;90.50;;;;;;5001614;28;20054;-69
2023/03/31 07:41:55;;;;;;;6.93;2.05;;;10.50;90.60;;;;;;5003867;28;20050;-68
2023/03/31 07:44:28;;;;;;;7.75;2.40;;;10.40;90.50;;;;;;5001237;28;20120;-68
2023/03/31 07:47:08;;;;;;;6.45;2.60;;;10.50;90.50;;;;;;5003890;28;20053;-68
2023/03/31 07:49:41;;;;;;;8.27;2.45;;;10.50;90.20;;;;;;4996880;28;20051;-67
2023/03/31 07:52:14;;;;;;;6.05;2.28;;;10.50;90.20;;;;;;5003055;28;20045;-67
2023/03/31 07:54:49;;;;;;;6.80;2.05;;;10.50;90.20;;;;;;5001748;28;20049;-68
2023/03/31 07:57:29;;;;;;;5.97;1.98;;;10.50;90.00;;;;;;5011757;28;20041;-68
2023/03/31 08:00:07;;;;;;;7.35;2.13;;;10.50;90.40;;;;;;5018160;28;20049;-69
2023/03/31 08:02:41;;;;;;;4.93;1.60;;;10.50;90.30;;;;;;5017544;28;20057;-67
2023/03/31 08:05:17;;;;;;;4.95;2.00;;;10.50;90.30;;;;;;5016820;28;20403;-69
2023/03/31 08:07:50;;;;;;;8.93;2.15;;;10.50;90.30;;;;;;5018098;28;20079;-69
2023/03/31 08:10:27;;;;;;;8.23;2.00;;;10.50;90.50;;;;;;5017025;28;20069;-68
2023/03/31 08:13:00;;;;;;;6.22;2.72;;;10.50;90.20;;;;;;5019615;28;20569;-68
2023/03/31 08:15:34;;;;;;;6.90;2.40;;;10.50;90.20;;;;;;5017306;28;20045;-68
2023/03/31 08:18:07;;;;;;;4.95;1.95;;;10.50;90.50;;;;;;5018316;28;20435;-69
2023/03/31 08:20:41;;;;;;;6.65;2.47;;;10.50;90.50;;;;;;5014069;28;20139;-68
2023/03/31 08:23:14;;;;;;;7.45;2.45;;;10.50;90.40;;;;;;5017412;28;20068;-67
2023/03/31 08:25:49;;;;;;;7.60;2.50;;;10.50;90.20;;;;;;5018001;28;20504;-67
2023/03/31 08:28:22;;;;;;;5.60;2.40;;;10.50;89.90;;;;;;5017153;28;20038;-69
2023/03/31 08:30:55;;;;;;;4.57;2.08;;;10.60;89.80;;;;;;5002029;28;20045;-68
2023/03/31 08:33:28;;;;;;;6.07;2.10;;;10.60;89.80;;;;;;5017355;28;20101;-69
2023/03/31 08:36:03;;;;;;;4.82;2.00;;;10.60;89.90;;;;;;4999838;28;20053;-69
2023/03/31 08:38:37;;;;;;;8.38;2.47;;;10.70;89.60;;;;;;5013769;28;20072;-68
2023/03/31 08:41:33;;;;;;;6.25;2.03;;;10.70;89.60;;;;;;5018707;28;20049;-68
2023/03/31 08:44:11;;;;;;;6.03;2.67;;;10.70;89.50;;;;;;5017490;28;20054;-68
2023/03/31 08:46:45;;;;;;;5.43;2.63;;;10.80;89.70;;;;;;5016830;28;20129;-68
2023/03/31 08:49:16;;;;;;;10.15;2.72;;;10.80;89.50;;;;;;4999987;28;20042;-68
2023/03/31 08:51:54;;;;;;;5.57;1.95;;;10.90;89.50;;;;;;5017096;28;20061;-68
2023/03/31 08:54:32;;;;;;;5.70;2.17;;;10.90;89.50;;;;;;5017666;28;20041;-68
2023/03/31 08:57:15;;;;;;;4.47;2.20;;;11.00;89.30;;;;;;5012861;28;20534;-67
2023/03/31 08:59:57;;;;;;;5.50;2.05;;;11.10;89.30;;;;;;5015757;28;20073;-69
2023/03/31 09:02:40;;;;;;;3.92;1.90;;;11.30;89.30;;;;;;5015460;28;20064;-68
2023/03/31 09:05:38;;;;;;;6.18;2.22;;;11.60;89.20;;;;;;5017800;28;20116;-68
2023/03/31 09:08:17;;;;;;;6.43;2.28;;;11.70;89.20;;;;;;4996452;28;20050;-68
2023/03/31 09:10:56;;;;;;;5.68;2.53;;;12.00;89.00;;;;;;5017101;28;20042;-69
2023/03/31 09:13:51;;;;;;;6.53;2.28;;;12.10;89.10;;;;;;5016373;28;20066;-69
2023/03/31 09:16:28;;;;;;;5.38;2.33;;;12.10;88.90;;;;;;5016719;28;20049;-68
2023/03/31 09:19:02;;;;;;;6.32;2.63;;;12.10;88.80;;;;;;5017750;28;20053;-68
2023/03/31 09:21:39;;;;;;;6.53;2.53;;;12.20;88.70;;;;;;5014848;28;20073;-68
2023/03/31 09:24:19;;;;;;;5.82;2.53;;;12.30;88.70;;;;;;5018382;28;20072;-69
2023/03/31 09:26:56;;;;;;;7.38;2.30;;;12.20;88.60;;;;;;5014902;28;20397;-69
2023/03/31 09:29:41;;;;;;;5.60;2.38;;;12.20;88.30;;;;;;5014233;28;20050;-68
2023/03/31 09:32:16;;;;;;;6.55;2.58;;;12.20;88.00;;;;;;5012505;28;20054;-69
2023/03/31 09:34:53;;;;;;;5.97;2.50;;;12.20;88.10;;;;;;4998590;28;20061;-69
2023/03/31 09:37:31;;;;;;;6.60;2.35;;;12.30;88.20;;;;;;5014704;28;20112;-68
2023/03/31 09:40:06;;;;;;;5.45;2.05;;;12.40;88.10;;;;;;5016170;28;20127;-70
2023/03/31 09:42:39;;;;;;;4.55;2.03;;;12.40;87.80;;;;;;5014283;28;20501;-69
2023/03/31 09:45:18;;;;;;;5.25;2.17;;;12.40;87.50;;;;;;5014565;28;20041;-69
2023/03/31 09:47:54;;;;;;;4.82;1.92;;;12.40;87.20;;;;;;5015733;28;20046;-69
2023/03/31 09:50:29;;;;;;;3.90;1.75;;;12.40;87.40;;;;;;5019140;28;20119;-69
2023/03/31 09:53:05;;;;;;;6.13;1.80;;;12.50;87.20;;;;;;5018383;28;20571;-68
2023/03/31 09:55:44;;;;;;;5.10;1.60;;;12.50;86.90;;;;;;5016686;28;20049;-69
2023/03/31 09:58:25;;;;;;;4.82;1.40;;;12.60;86.70;;;;;;5014584;28;20492;-69
2023/03/31 10:01:03;;;;;;;4.28;1.55;;;12.70;86.50;;;;;;5015687;28;20068;-68
2023/03/31 10:03:47;;;;;;;4.18;1.38;;;12.70;86.20;;;;;;5015282;28;20135;-69
2023/03/31 10:06:21;;;;;;;3.10;1.15;;;12.70;86.00;;;;;;5012915;28;20065;-68
2023/03/31 10:08:57;;;;;;;3.88;1.60;;;12.70;85.90;;;;;;5015622;28;20059;-69
2023/03/31 10:11:31;;;;;;;4.45;1.63;;;12.60;85.70;;;;;;5014328;28;20064;-69
2023/03/31 10:14:12;;;;;;;4.90;1.67;;;12.60;86.00;;;;;;5015830;28;20467;-69
2023/03/31 10:16:50;;;;;;;5.30;1.63;;;12.50;85.70;;;;;;5014658;28;20127;-69
2023/03/31 10:19:25;;;;;;;3.70;1.40;;;12.50;85.30;;;;;;5014725;28;20056;-68
2023/03/31 10:22:00;;;;;;;6.60;1.80;;;12.60;85.60;;;;;;5016412;28;20112;-70
2023/03/31 10:24:38;;;;;;;4.25;1.33;;;12.50;85.30;;;;;;5015473;28;20038;-69
2023/03/31 10:27:20;;;;;;;3.10;1.30;;;12.60;85.00;;;;;;5017185;28;20052;-69
2023/03/31 10:29:55;;;;;;;2.35;1.10;;;12.70;85.00;;;;;;5016293;28;20038;-69
2023/03/31 10:32:31;;;;;;;4.70;1.48;;;12.80;84.90;;;;;;5014397;28;20093;-70
2023/03/31 10:35:08;;;;;;;4.18;1.50;;;12.90;84.70;;;;;;5013062;28;20049;-68
2023/03/31 10:37:42;;;;;;;5.03;1.60;;;13.10;84.50;;;;;;5013593;28;20099;-69
2023/03/31 10:40:19;;;;;;;4.22;1.67;;;13.40;84.40;;;;;;5017326;28;20053;-67
2023/03/31 10:43:02;;;;;;;5.72;1.40;;;13.50;83.80;;;;;;5016790;28;20505;-70
2023/03/31 10:45:43;;;;;;;6.78;1.67;;;13.60;83.10;;;;;;5012879;28;20081;-69
2023/03/31 10:48:27;;;;;;;4.78;1.55;;;13.70;82.60;;;;;;4998158;28;20501;-68
2023/03/31 10:51:03;;;;;;;5.63;1.35;;;13.70;81.60;;;;;;5014474;28;20617;-70
2023/03/31 10:53:41;;;;;;;5.35;1.50;;;13.70;81.50;;;;;;5011831;28;20538;-70
2023/03/31 10:56:40;;;;;;;5.85;1.67;;;13.70;81.50;;;;;;5012156;28;20065;-70
2023/03/31 10:59:43;;;;;;;4.80;1.40;;;13.60;80.60;;;;;;5013365;28;20488;-69
2023/03/31 11:02:45;;;;;;;5.07;2.30;;;13.60;81.10;;;;;;5014305;28;20408;-69
2023/03/31 11:05:27;;;;;;;5.70;1.50;;;13.60;81.20;;;;;;5019481;28;20045;-68
2023/03/31 11:08:17;;;;;;;3.25;1.00;;;13.40;80.50;;;;;;5017640;28;20061;-69
2023/03/31 11:11:19;;;;;;;2.42;0.80;;;13.10;80.20;;;;;;5019414;28;20120;-69
2023/03/31 11:14:00;;;;;;;4.50;1.10;;;12.90;80.60;;;;;;5016540;28;20508;-69
2023/03/31 11:16:44;;;;;;;2.97;1.08;;;12.60;81.60;;;;;;5018901;28;20060;-69
2023/03/31 11:19:31;;;;;;;3.47;0.88;;;12.40;82.80;;;;;;5018248;28;20061;-67
2023/03/31 11:22:14;;;;;;;3.33;0.85;;;12.30;83.30;;;;;;5013741;28;20049;-69
2023/03/31 11:25:11;;;;;;;5.00;1.27;;;12.20;83.20;;;;;;5019426;28;20053;-68
2023/03/31 11:28:04;;;;;;;2.28;0.70;;;12.20;83.30;;;;;;5019892;28;20186;-69
2023/03/31 11:30:42;;;;;;;2.15;0.73;;;12.20;83.10;;;;;;5017478;28;20057;-67
2023/03/31 11:33:33;;;;;;;2.75;0.77;;;12.00;83.30;;;;;;5018236;28;20050;-67
2023/03/31 11:36:18;;;;;;;3.90;1.25;;;11.80;83.90;;;;;;5018505;28;20038;-68
2023/03/31 11:39:08;;;;;;;4.20;1.35;;;11.70;84.60;;;;;;5016374;28;20049;-67
2023/03/31 11:41:46;;;;;;;2.13;0.73;;;11.70;84.30;;;;;;5015314;28;20140;-68
2023/03/31 11:44:22;;;;;;;3.22;0.90;;;11.70;84.50;;;;;;4985187;28;20132;-66
2023/03/31 11:47:00;;;;;;;2.85;0.73;;;11.70;84.00;;;;;;5000098;28;20123;-67
2023/03/31 11:49:38;;;;;;;1.10;0.40;;;11.90;83.60;;;;;;5015151;28;20104;-68
2023/03/31 11:52:16;;;;;;;2.00;0.70;;;12.00;83.90;;;;;;5018684;28;20046;-67
2023/03/31 11:54:56;;;;;;;4.25;1.70;;;12.10;83.90;;;;;;5015761;28;20485;-69
2023/03/31 11:57:40;;;;;;;4.93;0.88;;;12.20;84.00;;;;;;5023651;28;20061;-67
2023/03/31 12:00:19;;;;;;;2.60;0.73;;;12.30;83.50;;;;;;5037594;28;20476;-67
2023/03/31 12:03:07;;;;;;;2.05;0.60;;;12.40;83.30;;;;;;5038896;28;20052;-68
2023/03/31 12:05:45;;;;;;;3.20;0.60;;;12.50;83.10;;;;;;5037645;28;20037;-68
2023/03/31 12:08:28;;;;;;;2.63;0.70;;;12.70;82.90;;;;;;5036993;28;20048;-69
2023/03/31 12:11:08;;;;;;;2.65;0.73;;;12.80;82.80;;;;;;5038845;28;20107;-68
2023/03/31 12:13:47;;;;;;;3.42;0.50;;;13.00;82.50;;;;;;5034275;28;20048;-66
2023/03/31 12:16:23;;;;;;;1.23;0.45;;;13.10;82.40;;;;;;5038140;28;20080;-69
2023/03/31 12:19:04;;;;;;;2.28;0.68;;;13.20;82.30;;;;;;5038394;28;20156;-71
2023/03/31 12:21:50;;;;;;;3.20;0.68;;;13.20;82.00;;;;;;5037435;28;20077;-69
2023/03/31 12:24:24;;;;;;;2.17;0.68;;;13.20;81.90;;;;;;5038635;28;20053;-68
2023/03/31 12:27:05;;;;;;;2.30;0.70;;;13.20;81.30;;;;;;5039516;28;20128;-69
2023/03/31 12:29:42;;;;;;;1.98;0.70;;;13.30;81.40;;;;;;5038570;28;20077;-69
2023/03/31 12:32:19;;;;;;;3.03;0.70;;;13.40;81.30;;;;;;5042860;28;20053;-68
2023/03/31 12:34:59;;;;;;;1.95;0.70;;;13.40;81.30;;;;;;5038654;28;20121;-69
2023/03/31 12:38:05;;;;;;;3.47;0.93;;;13.50;81.00;;;;;;5034382;28;20056;-69
2023/03/31 12:40:49;;;;;;;3.92;0.95;;;13.60;80.90;;;;;;5037001;28;20061;-69
2023/03/31 12:43:51;;;;;;;5.60;1.02;;;13.60;81.00;;;;;;5034997;28;20057;-70
2023/03/31 12:46:40;;;;;;;3.28;1.00;;;13.60;80.90;;;;;;5036420;28;20087;-68
2023/03/31 12:49:26;;;;;;;5.63;0.95;;;13.70;81.00;;;;;;5036579;28;20076;-70
2023/03/31 12:52:05;;;;;;;4.90;1.50;;;13.60;81.10;;;;;;5036632;28;20064;-69
2023/03/31 12:55:00;;;;;;;7.47;2.20;;;13.70;81.10;;;;;;5034714;28;20109;-70
2023/03/31 12:57:40;;;;;;;7.75;2.22;;;13.70;80.90;;;;;;5028155;28;20058;-69
2023/03/31 13:00:24;;;;;;;10.63;2.20;;;13.60;80.90;;;;;;5015767;28;20046;-69
2023/03/31 13:03:36;;;;;;;6.47;1.70;;;13.50;81.40;;;;;;5016602;28;20052;-69
2023/03/31 13:06:12;;;;;;;6.30;1.55;;;13.30;82.00;;;;;;5015751;28;20101;-68
2023/03/31 13:08:52;;;;;;;6.03;1.58;;;13.20;82.70;;;;;;5015363;28;20045;-68
2023/03/31 13:11:38;;;;;;;2.58;0.95;;;13.00;83.00;;;;;;5017816;28;20054;-69
2023/03/31 13:14:18;;;;;;;5.43;1.27;;;12.90;83.20;;;;;;5014834;28;20101;-68
2023/03/31 13:17:11;;;;;;;4.30;1.15;;;12.70;83.70;;;;;;5008153;28;20097;-69
2023/03/31 13:19:46;;;;;;;6.05;1.58;;;12.70;84.30;;;;;;5014355;28;20060;-68
2023/03/31 13:22:34;;;;;;;5.30;1.48;;;12.60;84.60;;;;;;5016889;28;20041;-68
2023/03/31 13:25:27;;;;;;;5.93;1.42;;;12.70;84.70;;;;;;5012280;28;20564;-69
2023/03/31 13:28:24;;;;;;;7.65;1.83;;;12.60;85.30;;;;;;5014422;28;20065;-69
2023/03/31 13:31:01;;;;;;;6.18;1.70;;;12.50;85.70;;;;;;5011770;28;20088;-68
2023/03/31 13:33:44;;;;;;;7.78;1.45;;;12.50;85.80;;;;;;5013876;28;20173;-68
2023/03/31 13:37:01;;;;;;;7.78;1.40;;;12.50;85.80;;;;;;5004598;28;20061;-68
2023/03/31 13:40:08;;;;;;;5.70;1.42;;;12.50;85.90;;;;;;5010594;28;20046;-68
2023/03/31 13:42:58;;;;;;;6.40;1.50;;;12.60;85.60;;;;;;5011699;28;20453;-67
2023/03/31 13:46:01;;;;;;;4.93;1.23;;;12.50;85.40;;;;;;5015581;28;20559;-65